createdAt,value
2023-01-27T00:00:20.284Z,157.88889
2023-01-27T00:05:22.151Z,156.41379
2023-01-27T00:10:23.691Z,155.68385
2023-01-27T00:15:25.331Z,153.52381
2023-01-27T00:20:27.122Z,149.33333
2023-01-27T00:25:28.794Z,147.30033
2023-01-27T00:30:30.512Z,147.30033
2023-01-27T00:35:32.363Z,150.02007
2023-01-27T00:40:34.245Z,152.81356
2023-01-27T00:45:36.458Z,160.14035
2023-01-27T00:50:38.174Z,157.14879
2023-01-27T00:55:40.059Z,161.66784
2023-01-27T01:00:41.819Z,154.9589
2023-01-27T01:05:43.303Z,145.30719
2023-01-27T01:10:44.809Z,140.80511
2023-01-27T01:15:46.552Z,145.30719
2023-01-27T01:20:48.380Z,149.33333
2023-01-27T01:25:50.178Z,149.33333
2023-01-27T01:30:52.077Z,154.23891
2023-01-27T01:35:53.622Z,153.52381
2023-01-27T01:40:55.274Z,151.40741
2023-01-27T01:45:57.008Z,150.71141
2023-01-27T01:50:58.744Z,150.02007
2023-01-27T01:56:00.554Z,148.65116
2023-01-27T02:01:02.363Z,150.71141
2023-01-27T02:06:04.045Z,148.65116
2023-01-27T02:11:05.532Z,152.81356
2023-01-27T02:16:07.530Z,149.33333
2023-01-27T02:21:09.431Z,150.02007
2023-01-27T02:26:11.459Z,147.97351
2023-01-27T02:31:13.375Z,144.65147
2023-01-27T02:36:15.184Z,147.97351
2023-01-27T02:41:17.143Z,145.30719
2023-01-27T02:46:19.309Z,142.70968
2023-01-27T02:51:21.176Z,142.70968
2023-01-27T02:56:23.065Z,141.4359
2023-01-27T03:01:24.903Z,142.70968
2023-01-27T03:06:27.139Z,142.07074
2023-01-27T03:11:29.132Z,143.35275
2023-01-27T03:16:31.178Z,145.96721
2023-01-27T03:21:33.022Z,145.30719
2023-01-27T03:26:34.580Z,141.4359
2023-01-27T03:31:36.672Z,140.17834
2023-01-27T03:36:38.514Z,135.30435
2023-01-27T03:41:40.431Z,133.53846
2023-01-27T03:46:42.539Z,127.8806
2023-01-27T03:51:44.420Z,126.24852
2023-01-27T03:56:46.405Z,128.43114
2023-01-27T04:01:48.303Z,123.59184
2023-01-27T04:06:50.255Z,122.55072
2023-01-27T04:11:52.228Z,126.78932
2023-01-27T04:16:54.270Z,127.33333
2023-01-27T04:21:55.829Z,121.52161
2023-01-27T04:26:57.519Z,122.55072
2023-01-27T04:31:59.009Z,122.03468
2023-01-27T04:37:00.536Z,120
2023-01-27T04:42:02.139Z,115.58774
2023-01-27T04:47:04.911Z,118.50425
2023-01-27T04:52:06.421Z,125.71091
2023-01-27T04:57:08.049Z,124.64516
2023-01-27T05:02:09.714Z,124.11696
2023-01-27T05:07:11.658Z,126.78932
2023-01-27T05:12:13.104Z,121.52161
2023-01-27T05:17:15.047Z,124.11696
2023-01-27T05:22:16.842Z,128.43114
2023-01-27T05:27:19.190Z,129.54217
2023-01-27T05:32:21.298Z,126.78932
2023-01-27T05:37:23.260Z,121.01149
2023-01-27T05:42:25.772Z,128.43114
2023-01-27T05:47:27.780Z,130.66667
2023-01-27T05:52:29.913Z,131.80488
2023-01-27T05:57:32.038Z,125.17647
2023-01-27T06:02:33.896Z,124.11696
2023-01-27T06:07:35.609Z,129.54217
2023-01-27T06:12:37.565Z,131.80488
2023-01-27T06:17:39.401Z,127.33333
2023-01-27T06:22:41.120Z,130.10272
2023-01-27T06:27:43.187Z,130.10272
2023-01-27T06:32:44.989Z,131.23404
2023-01-27T06:37:47.219Z,126.78932
2023-01-27T06:42:49.240Z,129.54217
2023-01-27T06:47:51.314Z,144.65147
2023-01-27T06:52:53.295Z,128.98498
2023-01-27T06:57:55.146Z,126.78932
2023-01-27T07:02:56.843Z,132.95706
2023-01-27T07:07:58.326Z,129.54217
2023-01-27T07:12:59.772Z,139.55556
2023-01-27T07:18:01.628Z,145.30719
2023-01-27T07:23:03.115Z,131.80488
2023-01-27T07:28:04.922Z,134.12346
2023-01-27T07:33:06.823Z,132.95706
2023-01-27T07:38:08.612Z,136.5
2023-01-27T07:43:10.278Z,145.30719
2023-01-27T07:48:12.255Z,144
2023-01-27T07:53:13.955Z,134.12346
2023-01-27T07:58:15.550Z,146.63158
2023-01-27T08:03:17.318Z,144
2023-01-27T08:08:18.931Z,137.71069
2023-01-27T08:13:20.510Z,144
2023-01-27T08:18:22.179Z,141.4359
2023-01-27T08:23:24.001Z,137.10345
2023-01-27T08:28:26.441Z,144
2023-01-27T08:33:28.214Z,142.07074
2023-01-27T08:38:30.105Z,144
2023-01-27T08:43:32.314Z,139.55556
2023-01-27T08:48:34.441Z,142.07074
2023-01-27T08:53:36.457Z,136.5
2023-01-27T08:58:38.285Z,144
2023-01-27T09:03:40.036Z,148.65116
2023-01-27T09:09:16.238Z,146.63158
2023-01-27T09:14:24.876Z,153.52381
2023-01-27T09:19:26.763Z,166.38267
2023-01-27T09:24:28.523Z,169.64103
2023-01-27T09:29:30.651Z,191.38956
2023-01-27T09:34:32.311Z,226.56881
2023-01-27T09:39:34.054Z,255.11111
2023-01-27T09:44:36.241Z,264.83333
2023-01-27T09:49:38.087Z,244.4878
2023-01-27T09:54:40.030Z,253.54774
2023-01-27T09:59:42.344Z,300.06936
2023-01-27T10:04:44.370Z,294
2023-01-27T10:09:46.317Z,304.23392
2023-01-27T10:14:48.812Z,371.77778
2023-01-27T10:19:50.906Z,326.6087
2023-01-27T10:24:52.642Z,363.04762
2023-01-27T10:29:54.759Z,448.91803
2023-01-27T10:34:56.379Z,429.03937
2023-01-27T10:39:58.184Z,338.87179
2023-01-27T10:45:00.135Z,400.2963
2023-01-27T10:50:01.819Z,553.90099
2023-01-27T10:55:03.802Z,432.88889
2023-01-27T11:00:35.704Z,592.42105
2023-01-27T11:05:44.167Z,686.16867
2023-01-27T11:10:46.235Z,754.52632
2023-01-27T11:15:48.379Z,1084.74074
2023-01-27T11:20:50.463Z,891.69231
2023-01-27T11:25:52.520Z,1006.06897
2023-01-27T11:30:54.710Z,668.70588
2023-01-27T11:35:56.664Z,1064
2023-01-27T11:40:58.313Z,1201.14286
2023-01-27T11:46:00.174Z,1283.13043
2023-01-27T11:51:02.028Z,849.88235
2023-01-27T11:56:03.687Z,921.77778
2023-01-27T12:01:05.397Z,849.88235
2023-01-27T12:06:07.450Z,811.60563
2023-01-27T12:11:09.596Z,636.13483
2023-01-27T12:16:11.888Z,579.05155
2023-01-27T12:21:13.880Z,744
2023-01-27T12:26:15.933Z,530.66667
2023-01-27T12:31:18.123Z,547.92157
2023-01-27T12:36:20.342Z,509.13761
2023-01-27T12:41:22.960Z,494
2023-01-27T12:46:25.123Z,585.66667
2023-01-27T12:51:26.790Z,644
2023-01-27T12:56:28.896Z,560
2023-01-27T13:01:31.251Z,504
2023-01-27T13:06:33.557Z,470.49573
2023-01-27T13:11:35.646Z,429.03937
2023-01-27T13:16:37.559Z,354.66667
2023-01-27T13:21:39.293Z,344
2023-01-27T13:26:40.801Z,363.04762
2023-01-27T13:31:42.375Z,387.16547
2023-01-27T13:36:44.149Z,351.94702
2023-01-27T13:41:45.872Z,324.24691
2023-01-27T13:46:47.653Z,371.77778
2023-01-27T13:51:49.618Z,357.42282
2023-01-27T13:56:51.209Z,308.49704
2023-01-27T14:01:52.958Z,288.13408
2023-01-27T14:06:54.708Z,288.13408
2023-01-27T14:11:56.208Z,230.51163
2023-01-27T14:16:57.964Z,190.4
2023-01-27T14:21:59.824Z,259.89744
2023-01-27T14:27:01.369Z,248.9505
2023-01-27T14:32:03.166Z,222.73303
2023-01-27T14:37:04.738Z,225.27854
2023-01-27T14:42:06.261Z,220.23318
2023-01-27T14:47:08.102Z,231.85047
2023-01-27T14:52:10.085Z,229.18519
2023-01-27T14:57:11.721Z,252
2023-01-27T15:02:13.584Z,255.11111
2023-01-27T15:07:15.122Z,235.94313
2023-01-27T15:12:16.723Z,230.51163
2023-01-27T15:17:18.347Z,230.51163
2023-01-27T15:22:20.358Z,227.87097
2023-01-27T15:27:22.125Z,280.61202
2023-01-27T15:32:23.987Z,308.49704
2023-01-27T15:37:25.533Z,286.22222
2023-01-27T15:42:27.181Z,284.33149
2023-01-27T15:47:28.693Z,333.87342
2023-01-27T15:52:30.729Z,338.87179
2023-01-27T15:57:32.668Z,329
2023-01-27T16:02:34.867Z,326.6087
2023-01-27T16:07:36.692Z,357.42282
2023-01-27T16:12:38.631Z,341.41935
2023-01-27T16:17:40.727Z,331.42138
2023-01-27T16:22:42.502Z,351.94702
2023-01-27T16:27:43.993Z,368.82759
2023-01-27T16:32:45.571Z,360.21622
2023-01-27T16:37:47.241Z,329
2023-01-27T16:42:48.790Z,324.24691
2023-01-27T16:47:50.714Z,269.92593
2023-01-27T16:52:52.690Z,259.89744
2023-01-27T16:57:54.958Z,238.73684
2023-01-27T17:02:56.777Z,241.58454
2023-01-27T17:07:58.265Z,240.15385
2023-01-27T17:12:59.735Z,240.15385
2023-01-27T17:18:01.468Z,230.51163
2023-01-27T17:23:03.476Z,219
2023-01-27T17:28:05.307Z,221.47748
2023-01-27T17:33:07.138Z,202.82353
2023-01-27T17:38:09.118Z,192.3871
2023-01-27T17:43:10.955Z,171.30627
2023-01-27T17:48:12.814Z,142.70968
2023-01-27T17:53:15.110Z,162.43972
2023-01-27T17:58:17.496Z,167.18841
2023-01-27T18:03:19.549Z,157.88889
2023-01-27T18:08:21.417Z,172.99628
2023-01-27T18:13:23.498Z,172.14815
2023-01-27T18:18:25.979Z,172.14815
2023-01-27T18:23:29.324Z,172.99628
2023-01-27T18:28:32.244Z,167.18841
2023-01-27T18:33:35.541Z,170.47059
2023-01-27T18:38:38.747Z,175.57895
2023-01-27T18:43:42.603Z,190.4
2023-01-27T18:48:46.708Z,181.83784
2023-01-27T18:53:51.299Z,177.33333
2023-01-27T18:58:55.802Z,178.22053
2023-01-27T19:03:59.594Z,183.68872
2023-01-27T19:09:02.892Z,182.75969
2023-01-27T19:14:05.984Z,192.3871
2023-01-27T19:19:10.038Z,180.92308
2023-01-27T19:24:14.731Z,180.92308
2023-01-27T19:29:18.179Z,165.58273
2023-01-27T19:34:21.698Z,152.10811
2023-01-27T19:39:25.699Z,148.65116
2023-01-27T19:44:29.240Z,145.30719
2023-01-27T19:49:33.052Z,145.96721
2023-01-27T19:54:37.566Z,144
2023-01-27T19:59:41.696Z,141.4359
2023-01-27T20:04:45.978Z,134.71207
2023-01-27T20:09:50.208Z,141.4359
2023-01-27T20:14:53.966Z,143.35275
2023-01-27T20:19:58.141Z,140.17834
2023-01-27T20:25:02.105Z,138.32177
2023-01-27T20:30:07.963Z,146.63158
2023-01-27T20:35:10.853Z,147.97351
2023-01-27T20:40:13.865Z,152.10811
2023-01-27T20:45:17.104Z,140.80511
2023-01-27T20:50:20.484Z,113.23077
2023-01-27T20:55:24.595Z,112.30601
2023-01-27T21:00:27.552Z,112.30601
2023-01-27T21:05:30.678Z,114.16575
2023-01-27T21:10:33.717Z,112.76712
2023-01-27T21:15:36.836Z,121.52161
2023-01-27T21:20:40.141Z,121.01149
2023-01-27T21:25:43.261Z,131.23404
2023-01-27T21:30:46.080Z,132.95706
2023-01-27T21:35:48.715Z,134.12346
2023-01-27T21:40:51.675Z,141.4359
2023-01-27T21:45:54.390Z,142.70968
2023-01-27T21:50:56.669Z,138.32177
2023-01-27T21:55:59.404Z,137.10345
2023-01-27T22:01:01.133Z,138.93671
2023-01-27T22:06:02.942Z,144.65147
2023-01-27T22:11:04.453Z,142.70968
2023-01-27T22:16:05.995Z,144
2023-01-27T22:21:07.790Z,144
2023-01-27T22:26:09.473Z,145.96721
2023-01-27T22:31:11.284Z,145.96721
2023-01-27T22:36:12.810Z,140.80511
2023-01-27T22:41:14.445Z,148.65116
2023-01-27T22:46:15.966Z,155.68385
2023-01-27T22:51:17.884Z,156.41379
2023-01-27T22:56:19.816Z,149.33333
2023-01-27T23:01:21.663Z,140.80511
2023-01-27T23:06:23.452Z,145.30719
2023-01-27T23:11:25.262Z,152.10811
2023-01-27T23:16:27.302Z,153.52381
2023-01-27T23:21:29.348Z,156.41379
2023-01-27T23:26:30.989Z,151.40741
2023-01-27T23:31:32.750Z,147.30033
2023-01-27T23:36:34.535Z,153.52381
2023-01-27T23:41:35.985Z,152.10811
2023-01-27T23:46:37.541Z,148.65116
2023-01-27T23:51:39.266Z,142.07074
2023-01-27T23:56:41.199Z,140.17834
